Cheikh El Mokrani — C6WD5 — position and weather

sailwx.info

Track history (hours):
 
Tides and Currents Weather Stations Pressure Air Temp Water Temp Dewpoint Dewpoint Depression Visibility Wind Speed Wind Dir Waves Ship Positions

Cheikh El Mokrani

Last reported at 2014-Jul-24 22:33 UTC. Time now 2014-Jul-24 23:05 UTC.
Position N 36°30' E 014°21'.

Length 220 m; draft 10.1 m.

Type: Ship (hazmat cat D). MMSI: 309979000.

Date/timePositionNaut miles runAvg speedWind from/ knotsBaromVisibWave heightAir tempDewpointWater temp
2014-Jul-24 22:33N 36°30' E 014°21'1514.6
2014-Jul-24 21:33N 36°34' E 014°03'1514.7
2014-Jul-24 20:33N 36°36' E 013°45'1514.6
2014-Jul-24 19:33N 36°40' E 013°28'1514.6
2014-Jul-24 18:33N 36°44' E 013°10'1514.9
2014-Jul-24 17:33N 36°47' E 012°52'1615.5
2014-Jul-24 16:33N 36°51' E 012°33'1515.1
2014-Jul-24 15:33N 36°55' E 012°15'1514.6
2014-Jul-24 14:32N 37°00' E 011°57'1414.8
2014-Jul-24 13:33N 37°07' E 011°41'17514.4
2014-Jul-24 01:24N 37°13' E 008°02'2815.0
2014-Jul-23 23:33N 37°12' E 007°27'1515.4
2014-Jul-23 22:33N 37°11' E 007°08'1212.0
2014-Jul-23 21:33N 36°60' E 007°04'  
2014-Jul-21 01:26N 41°48' E 005°30'1515.4
2014-Jul-21 00:28N 42°03' E 005°25'1616.6
2014-Jul-20 23:32N 42°18' E 005°20'1414.3
2014-Jul-20 22:33N 42°31' E 005°15'1616.2
2014-Jul-20 21:33N 42°47' E 005°09'1816.6
2014-Jul-20 20:28N 43°05' E 005°03'1314.6
2014-Jul-20 19:33N 43°17' E 004°59'10 9.7
2014-Jul-20 18:33N 43°26' E 004°52'1 1.4
2014-Jul-20 17:29N 43°27' E 004°51'0 0.0
2014-Jul-20 16:32N 43°27' E 004°51'0 0.0
2014-Jul-20 15:26N 43°27' E 004°51'0 0.0
2014-Jul-20 14:33N 43°27' E 004°51'0 0.0
2014-Jul-20 13:30N 43°27' E 004°51'0 0.0
2014-Jul-20 12:32N 43°27' E 004°51'0 0.0
2014-Jul-20 11:29N 43°27' E 004°51'0 0.0
2014-Jul-20 10:29N 43°27' E 004°51'0 0.0
2014-Jul-20 09:32N 43°27' E 004°51'0 0.0
2014-Jul-20 08:33N 43°27' E 004°51'0 0.0
2014-Jul-20 07:32N 43°27' E 004°51'0 0.0
2014-Jul-20 06:32N 43°27' E 004°51'0 0.0
2014-Jul-20 05:29N 43°27' E 004°51'0 0.0
2014-Jul-20 04:32N 43°27' E 004°51'0 0.0
2014-Jul-20 03:32N 43°27' E 004°51'0 0.0
2014-Jul-20 02:32N 43°27' E 004°51'0 0.0
2014-Jul-20 01:32N 43°27' E 004°51'0 0.0
2014-Jul-20 00:32N 43°27' E 004°51'0 0.0
2014-Jul-19 23:32N 43°27' E 004°51'0 0.0
2014-Jul-19 22:29N 43°27' E 004°51'0 0.0
2014-Jul-19 21:32N 43°27' E 004°51'0 0.0
2014-Jul-19 20:29N 43°27' E 004°51'0 0.0
2014-Jul-19 19:29N 43°27' E 004°51'0 0.0
2014-Jul-19 18:32N 43°27' E 004°51'0 0.0
2014-Jul-19 17:32N 43°27' E 004°51'0 0.0
2014-Jul-19 16:26N 43°27' E 004°51'0 0.0
2014-Jul-19 15:32N 43°27' E 004°51'0 0.0
2014-Jul-19 14:29N 43°27' E 004°51'0 0.0
2014-Jul-19 13:29N 43°27' E 004°51'0 0.0
2014-Jul-19 12:33N 43°27' E 004°51'2 2.3
2014-Jul-19 11:33N 43°25' E 004°53'9 8.6
2014-Jul-19 10:33N 43°18' E 004°60'1414.5
2014-Jul-19 09:33N 43°04' E 005°05'1716.6
2014-Jul-19 08:33N 42°48' E 005°10'1616.3
2014-Jul-19 07:33N 42°32' E 005°17'1616.5
2014-Jul-19 06:33N 42°16' E 005°22'1616.4
2014-Jul-19 05:33N 42°01' E 005°28'1616.2
2014-Jul-19 04:33N 41°45' E 005°33'1616.2
2014-Jul-19 03:34N 41°29' E 005°39'1616.0
2014-Jul-19 02:33N 41°14' E 005°43'1616.4
2014-Jul-19 01:33N 40°58' E 005°49'1716.6
2014-Jul-19 00:33N 40°42' E 005°54'1616.4
2014-Jul-18 23:33N 40°26' E 005°60'1716.5
2014-Jul-18 22:32N 40°09' E 006°05'1717.0
2014-Jul-18 21:33N 39°53' E 006°10'1717.2
2014-Jul-18 20:33N 39°37' E 006°15'1816.7
2014-Jul-18 19:28N 39°19' E 006°22'1516.5
2014-Jul-18 18:32N 39°04' E 006°27'1915.9
2014-Jul-18 17:19N 38°46' E 006°34'1416.3
2014-Jul-18 16:27N 38°32' E 006°38'1314.8
2014-Jul-18 15:33N 38°19' E 006°42'3215.8
2014-Jul-18 13:33N 37°48' E 006°51'2015.9
2014-Jul-18 12:17N 37°29' E 006°58'1216.0
2014-Jul-18 11:33N 37°18' E 007°02'1615.4
2014-Jul-18 10:32N 37°02' E 007°04'14 0.5
2014-Jul-17 08:09N 37°16' E 007°00'2616.6
2014-Jul-17 06:33N 37°41' E 006°51'13416.8
2014-Jul-16 22:33N 39°52' E 006°09'1716.8
2014-Jul-16 21:33N 40°08' E 006°04'1816.8
2014-Jul-16 20:28N 40°25' E 005°57'1516.6
2014-Jul-16 19:33N 40°40' E 005°53'1716.8
2014-Jul-16 18:31N 40°57' E 005°47'1616.6
2014-Jul-16 17:33N 41°13' E 005°42'1616.4
2014-Jul-16 16:33N 41°28' E 005°37'1616.4
2014-Jul-16 15:34N 41°44' E 005°31'1616.4
2014-Jul-16 14:33N 42°00' E 005°26'1716.6
2014-Jul-16 13:33N 42°16' E 005°20'1716.8
2014-Jul-16 12:33N 42°32' E 005°15'1716.8
2014-Jul-16 11:33N 42°49' E 005°09'1616.3
2014-Jul-16 10:33N 43°04' E 005°04'1413.8
2014-Jul-16 09:33N 43°18' E 004°59'8 7.7
2014-Jul-16 08:31N 43°25' E 004°54'0 0.0
2014-Jul-16 07:28N 43°25' E 004°54'0 0.0
2014-Jul-16 06:28N 43°25' E 004°54'0 0.0
2014-Jul-16 05:31N 43°25' E 004°54'0 0.0
2014-Jul-16 04:31N 43°25' E 004°54'0 0.0
2014-Jul-16 03:31N 43°25' E 004°54'0 0.0
2014-Jul-16 02:28N 43°25' E 004°54'0 0.0
2014-Jul-16 01:28N 43°25' E 004°54'0 0.0
2014-Jul-16 00:31N 43°25' E 004°54'0 0.0
2014-Jul-15 23:31N 43°25' E 004°54'0 0.0
2014-Jul-15 22:31N 43°25' E 004°54'0 0.0
2014-Jul-15 21:31N 43°25' E 004°54'0 0.0
2014-Jul-15 20:31N 43°25' E 004°54'0 0.0
2014-Jul-15 19:31N 43°25' E 004°54'0 0.0
2014-Jul-15 18:31N 43°25' E 004°54'0 0.0
2014-Jul-15 17:31N 43°25' E 004°54'0 0.0
2014-Jul-15 16:31N 43°25' E 004°54'0 0.0
2014-Jul-15 15:31N 43°25' E 004°54'0 0.0
2014-Jul-15 14:31N 43°25' E 004°54'0 0.0
2014-Jul-15 13:31N 43°25' E 004°54'0 0.0
2014-Jul-15 12:31N 43°25' E 004°54'0 0.0
2014-Jul-15 11:31N 43°25' E 004°54'0 0.0
2014-Jul-15 10:31N 43°25' E 004°54'0 0.0
2014-Jul-15 09:31N 43°25' E 004°54'0 0.0
2014-Jul-15 08:31N 43°25' E 004°54'0 0.0
2014-Jul-15 07:31N 43°25' E 004°54'0 0.0
2014-Jul-15 06:28N 43°25' E 004°54'0 0.0
2014-Jul-15 05:31N 43°25' E 004°54'0 0.0
2014-Jul-15 04:31N 43°25' E 004°54'0 0.0
2014-Jul-15 03:28N 43°25' E 004°54'0 0.0
2014-Jul-15 02:31N 43°25' E 004°54'0 0.0
2014-Jul-15 01:31N 43°25' E 004°54'0 0.0
2014-Jul-15 00:28N 43°25' E 004°54'0 0.0
2014-Jul-14 23:31N 43°25' E 004°54'  
Track history (hours):
 
Tides and Currents Weather Stations Pressure Air Temp Water Temp Dewpoint Dewpoint Depression Visibility Wind Speed Wind Dir Waves Ship Positions

Cheikh El Mokrani

Last reported at 2014-Jul-24 22:33 UTC. Time now 2014-Jul-24 23:05 UTC.
Position N 36°30' E 014°21'.

Length 220 m; draft 10.1 m.

Type: Ship (hazmat cat D). MMSI: 309979000.

Date/timePositionNaut miles runAvg speedWind from/ knotsBaromVisibWave heightAir tempDewpointWater temp
2014-Jul-24 22:33N 36°30' E 014°21'1514.6
2014-Jul-24 21:33N 36°34' E 014°03'1514.7
2014-Jul-24 20:33N 36°36' E 013°45'1514.6
2014-Jul-24 19:33N 36°40' E 013°28'1514.6
2014-Jul-24 18:33N 36°44' E 013°10'1514.9
2014-Jul-24 17:33N 36°47' E 012°52'1615.5
2014-Jul-24 16:33N 36°51' E 012°33'1515.1
2014-Jul-24 15:33N 36°55' E 012°15'1514.6
2014-Jul-24 14:32N 37°00' E 011°57'1414.8
2014-Jul-24 13:33N 37°07' E 011°41'17514.4
2014-Jul-24 01:24N 37°13' E 008°02'2815.0
2014-Jul-23 23:33N 37°12' E 007°27'1515.4
2014-Jul-23 22:33N 37°11' E 007°08'1212.0
2014-Jul-23 21:33N 36°60' E 007°04'  
2014-Jul-21 01:26N 41°48' E 005°30'1515.4
2014-Jul-21 00:28N 42°03' E 005°25'1616.6
2014-Jul-20 23:32N 42°18' E 005°20'1414.3
2014-Jul-20 22:33N 42°31' E 005°15'1616.2
2014-Jul-20 21:33N 42°47' E 005°09'1816.6
2014-Jul-20 20:28N 43°05' E 005°03'1314.6
2014-Jul-20 19:33N 43°17' E 004°59'10 9.7
2014-Jul-20 18:33N 43°26' E 004°52'1 1.4
2014-Jul-20 17:29N 43°27' E 004°51'0 0.0
2014-Jul-20 16:32N 43°27' E 004°51'0 0.0
2014-Jul-20 15:26N 43°27' E 004°51'0 0.0
2014-Jul-20 14:33N 43°27' E 004°51'0 0.0
2014-Jul-20 13:30N 43°27' E 004°51'0 0.0
2014-Jul-20 12:32N 43°27' E 004°51'0 0.0
2014-Jul-20 11:29N 43°27' E 004°51'0 0.0
2014-Jul-20 10:29N 43°27' E 004°51'0 0.0
2014-Jul-20 09:32N 43°27' E 004°51'0 0.0
2014-Jul-20 08:33N 43°27' E 004°51'0 0.0
2014-Jul-20 07:32N 43°27' E 004°51'0 0.0
2014-Jul-20 06:32N 43°27' E 004°51'0 0.0
2014-Jul-20 05:29N 43°27' E 004°51'0 0.0
2014-Jul-20 04:32N 43°27' E 004°51'0 0.0
2014-Jul-20 03:32N 43°27' E 004°51'0 0.0
2014-Jul-20 02:32N 43°27' E 004°51'0 0.0
2014-Jul-20 01:32N 43°27' E 004°51'0 0.0
2014-Jul-20 00:32N 43°27' E 004°51'0 0.0
2014-Jul-19 23:32N 43°27' E 004°51'0 0.0
2014-Jul-19 22:29N 43°27' E 004°51'0 0.0
2014-Jul-19 21:32N 43°27' E 004°51'0 0.0
2014-Jul-19 20:29N 43°27' E 004°51'0 0.0
2014-Jul-19 19:29N 43°27' E 004°51'0 0.0
2014-Jul-19 18:32N 43°27' E 004°51'0 0.0
2014-Jul-19 17:32N 43°27' E 004°51'0 0.0
2014-Jul-19 16:26N 43°27' E 004°51'0 0.0
2014-Jul-19 15:32N 43°27' E 004°51'0 0.0
2014-Jul-19 14:29N 43°27' E 004°51'0 0.0
2014-Jul-19 13:29N 43°27' E 004°51'0 0.0
2014-Jul-19 12:33N 43°27' E 004°51'2 2.3
2014-Jul-19 11:33N 43°25' E 004°53'9 8.6
2014-Jul-19 10:33N 43°18' E 004°60'1414.5
2014-Jul-19 09:33N 43°04' E 005°05'1716.6
2014-Jul-19 08:33N 42°48' E 005°10'1616.3
2014-Jul-19 07:33N 42°32' E 005°17'1616.5
2014-Jul-19 06:33N 42°16' E 005°22'1616.4
2014-Jul-19 05:33N 42°01' E 005°28'1616.2
2014-Jul-19 04:33N 41°45' E 005°33'1616.2
2014-Jul-19 03:34N 41°29' E 005°39'1616.0
2014-Jul-19 02:33N 41°14' E 005°43'1616.4
2014-Jul-19 01:33N 40°58' E 005°49'1716.6
2014-Jul-19 00:33N 40°42' E 005°54'1616.4
2014-Jul-18 23:33N 40°26' E 005°60'1716.5
2014-Jul-18 22:32N 40°09' E 006°05'1717.0
2014-Jul-18 21:33N 39°53' E 006°10'1717.2
2014-Jul-18 20:33N 39°37' E 006°15'1816.7
2014-Jul-18 19:28N 39°19' E 006°22'1516.5
2014-Jul-18 18:32N 39°04' E 006°27'1915.9
2014-Jul-18 17:19N 38°46' E 006°34'1416.3
2014-Jul-18 16:27N 38°32' E 006°38'1314.8
2014-Jul-18 15:33N 38°19' E 006°42'3215.8
2014-Jul-18 13:33N 37°48' E 006°51'2015.9
2014-Jul-18 12:17N 37°29' E 006°58'1216.0
2014-Jul-18 11:33N 37°18' E 007°02'1615.4
2014-Jul-18 10:32N 37°02' E 007°04'14 0.5
2014-Jul-17 08:09N 37°16' E 007°00'2616.6
2014-Jul-17 06:33N 37°41' E 006°51'13416.8
2014-Jul-16 22:33N 39°52' E 006°09'1716.8
2014-Jul-16 21:33N 40°08' E 006°04'1816.8
2014-Jul-16 20:28N 40°25' E 005°57'1516.6
2014-Jul-16 19:33N 40°40' E 005°53'1716.8
2014-Jul-16 18:31N 40°57' E 005°47'1616.6
2014-Jul-16 17:33N 41°13' E 005°42'1616.4
2014-Jul-16 16:33N 41°28' E 005°37'1616.4
2014-Jul-16 15:34N 41°44' E 005°31'1616.4
2014-Jul-16 14:33N 42°00' E 005°26'1716.6
2014-Jul-16 13:33N 42°16' E 005°20'1716.8
2014-Jul-16 12:33N 42°32' E 005°15'1716.8
2014-Jul-16 11:33N 42°49' E 005°09'1616.3
2014-Jul-16 10:33N 43°04' E 005°04'1413.8
2014-Jul-16 09:33N 43°18' E 004°59'8 7.7
2014-Jul-16 08:31N 43°25' E 004°54'0 0.0
2014-Jul-16 07:28N 43°25' E 004°54'0 0.0
2014-Jul-16 06:28N 43°25' E 004°54'0 0.0
2014-Jul-16 05:31N 43°25' E 004°54'0 0.0
2014-Jul-16 04:31N 43°25' E 004°54'0 0.0
2014-Jul-16 03:31N 43°25' E 004°54'0 0.0
2014-Jul-16 02:28N 43°25' E 004°54'0 0.0
2014-Jul-16 01:28N 43°25' E 004°54'0 0.0
2014-Jul-16 00:31N 43°25' E 004°54'0 0.0
2014-Jul-15 23:31N 43°25' E 004°54'0 0.0
2014-Jul-15 22:31N 43°25' E 004°54'0 0.0
2014-Jul-15 21:31N 43°25' E 004°54'0 0.0
2014-Jul-15 20:31N 43°25' E 004°54'0 0.0
2014-Jul-15 19:31N 43°25' E 004°54'0 0.0
2014-Jul-15 18:31N 43°25' E 004°54'0 0.0
2014-Jul-15 17:31N 43°25' E 004°54'0 0.0
2014-Jul-15 16:31N 43°25' E 004°54'0 0.0
2014-Jul-15 15:31N 43°25' E 004°54'0 0.0
2014-Jul-15 14:31N 43°25' E 004°54'0 0.0
2014-Jul-15 13:31N 43°25' E 004°54'0 0.0
2014-Jul-15 12:31N 43°25' E 004°54'0 0.0
2014-Jul-15 11:31N 43°25' E 004°54'0 0.0
2014-Jul-15 10:31N 43°25' E 004°54'0 0.0
2014-Jul-15 09:31N 43°25' E 004°54'0 0.0
2014-Jul-15 08:31N 43°25' E 004°54'0 0.0
2014-Jul-15 07:31N 43°25' E 004°54'0 0.0
2014-Jul-15 06:28N 43°25' E 004°54'0 0.0
2014-Jul-15 05:31N 43°25' E 004°54'0 0.0
2014-Jul-15 04:31N 43°25' E 004°54'0 0.0
2014-Jul-15 03:28N 43°25' E 004°54'0 0.0
2014-Jul-15 02:31N 43°25' E 004°54'0 0.0
2014-Jul-15 01:31N 43°25' E 004°54'0 0.0
2014-Jul-15 00:28N 43°25' E 004°54'0 0.0
2014-Jul-14 23:31N 43°25' E 004°54'  

Dump ship's entire track history